• Join FlightAware (Why Join?)
  • Login
  • US Flag 
04:20PM EDT


 

Airport Tracker/Info


-or-


 

Live Flight TrackerFlight Track Log ✈ SKW5580 ✈ 16-Jun-2013 ✈ KSMF - KDEN

Flight Track Log - Related Links

Times and Time Zones

All times are in EDT time to prevent confusion due to time zone crossing. See the SKW5580 flight status page for this flight to view local times or setup timezone preferences in your user account.

Time Position Orientation Groundspeed Altitude Reporting Facility
EDT Latitude Longitude Course Direction KTS MPH feet Rate Location/Type
10:12AM 38.6667 -121.5833 78° East 155 178 800  Level Northern Cal TRACON
10:13AM 38.6500 -121.5500 123° Southeast 192 221 1,900 1,740 Climbing Northern Cal TRACON
10:14AM 38.6333 -121.4667 104° East 232 267 4,000 2,160 Climbing Northern Cal TRACON
10:15AM 38.4974 -121.2519 80° East  Level FlightAware Approximate
10:15AM 38.6167 -121.3833 104° East 260 299 6,300  Level Northern Cal TRACON
10:16AM 38.5344 -121.0949 76° East  Level FlightAware Approximate
10:16AM 38.6167 -121.3000 90° East 287 330 8,100  Level Northern Cal TRACON
10:17AM 38.5638 -120.9347 78° East  Level FlightAware Approximate
10:17AM 38.6167 -121.2167 90° East 287 330 10,000  Level Northern Cal TRACON
10:17AM 38.6125 -121.1806 98° East 290 334 10,500 1,800 Climbing Oakland Center
10:18AM 38.5906 -120.7736 78° East  Level FlightAware Approximate
10:18AM 38.6103 -121.0744 92° East 297 342 12,400  Level Oakland Center
10:19AM 38.6092 -120.9567 91° East 320 368 13,400 1,140 Climbing Oakland Center
10:20AM 38.6092 -120.8281 90° East 354 407 14,800 1,380 Climbing Oakland Center
10:21AM 38.6094 -120.6983 90° East 363 418 16,300 1,440 Climbing Oakland Center
10:22AM 38.6089 -120.5653 90° East 374 430 17,800 1,440 Climbing Oakland Center
10:23AM 38.6072 -120.4319 91° East 376 433 19,300 1,440 Climbing Oakland Center
10:24AM 38.6058 -120.2983 91° East 376 433 20,800 1,260 Climbing Oakland Center
10:25AM 38.6056 -120.1608 90° East 385 443 21,900 1,020 Climbing Oakland Center
10:27AM 38.6067 -120.0211 89° East 394 453 22,900 960 Climbing Oakland Center
10:28AM 38.6028 -119.8792 92° East 398 458 23,900 1,020 Climbing Oakland Center
10:29AM 38.6003 -119.7242 91° East 406 467 25,000 840 Climbing Oakland Center
10:30AM 38.5983 -119.5806 91° East 406 467 25,700 600 Climbing Oakland Center
10:31AM 38.5950 -119.4322 92° East 416 479 26,300 540 Climbing Oakland Center
10:32AM 38.5939 -119.2806 90° East 427 491 26,900 540 Climbing Oakland Center
10:33AM 38.5897 -119.1278 92° East 431 496 27,500 540 Climbing Oakland Center
10:34AM 38.5878 -118.9725 91° East 438 504 28,100 540 Climbing Oakland Center
10:35AM 38.5844 -118.8178 92° East 438 504 28,700 660 Climbing Oakland Center
10:36AM 38.5806 -118.6317 91° East 439 505 29,500 600 Climbing Oakland Center
10:37AM 38.5767 -118.4775 92° East 437 503 30,000 480 Climbing Oakland Center
10:38AM 38.5736 -118.3206 91° East 442 509 30,500 480 Climbing Oakland Center
10:39AM 38.5689 -118.1658 92° East 440 506 31,000 480 Climbing Oakland Center
10:40AM 38.5650 -118.0000 92° East 442 509 31,500 480 Climbing Oakland Center
10:41AM 38.5578 -117.8439 93° East 440 506 32,000 480 Climbing Oakland Center
10:42AM 38.5506 -117.6886 93° East 437 503 32,500 420 Climbing Oakland Center
10:43AM 38.5453 -117.5628 93° East 439 505 32,900 240 Climbing Salt Lake Center
10:44AM 38.5372 -117.4069 94° East 437 503 33,000  Climbing Salt Lake Center
10:45AM 38.5289 -117.2150 93° East 446 513 33,000  Level Salt Lake Center
10:46AM 38.5206 -117.0550 94° East 448 516 33,000  Level Salt Lake Center
10:47AM 38.5125 -116.8944 94° East 449 517 33,000  Level Salt Lake Center
10:48AM 38.5050 -116.7331 93° East 452 520 33,000  Level Salt Lake Center
10:49AM 38.4958 -116.5731 94° East 451 519 33,000  Level Salt Lake Center
10:50AM 38.4875 -116.4125 94° East 451 519 33,000  Level Salt Lake Center
10:51AM 38.4856 -116.2494 91° East 456 525 33,000  Level Oakland Center
10:52AM 38.4917 -116.0892 87° East 454 522 33,000  Level Oakland Center
10:53AM 38.4961 -115.9278 88° East 455 524 33,000  Level Salt Lake Center
10:54AM 38.5008 -115.7658 88° East 458 527 33,000  Level Salt Lake Center
10:55AM 38.5058 -115.5714 88° East 457 526 33,000  Level Salt Lake Center
10:56AM 38.5106 -115.4089 88° East 458 527 33,000  Level Salt Lake Center
10:57AM 38.5150 -115.2489 88° East 462 532 33,000  Level Salt Lake Center
10:58AM 38.5186 -115.0889 88° East 456 525 33,000  Level Salt Lake Center
10:59AM 38.5222 -114.9272 88° East 456 525 33,000  Level Salt Lake Center
11:00AM 38.5256 -114.7664 88° East 454 522 33,000  Level Salt Lake Center
11:01AM 38.5297 -114.5739 88° East 453 521 33,000  Level Salt Lake Center
11:02AM 38.5319 -114.4144 89° East 451 519 33,000  Level Salt Lake Center
11:03AM 38.5350 -114.2528 89° East 454 522 33,000  Level Salt Lake Center
11:04AM 38.5381 -114.0919 89° East 453 521 33,000  Level Salt Lake Center
11:05AM 38.5400 -113.9303 89° East 455 524 33,000  Level Salt Lake Center
11:06AM 38.5428 -113.7694 89° East 454 522 33,000  Level Salt Lake Center
11:07AM 38.5439 -113.6097 89° East 451 519 33,000  Level Salt Lake Center
11:08AM 38.5464 -113.4161 89° East 452 520 33,000  Level Salt Lake Center
11:09AM 38.5475 -113.2539 89° East 455 524 33,000  Level Salt Lake Center
11:10AM 38.5481 -113.0922 90° East 455 524 33,000  Level Salt Lake Center
11:11AM 38.5489 -112.9328 90° East 451 519 33,000  Level Salt Lake Center
11:13AM 38.5494 -112.7717 90° East 451 519 33,000  Level Salt Lake Center
11:14AM 38.5506 -112.6114 89° East 451 519 33,000  Level Salt Lake Center
11:15AM 38.5503 -112.4508 90° East 452 520 33,000  Level Salt Lake Center
11:16AM 38.5511 -112.2592 90° East 449 517 33,000  Level Salt Lake Center
11:17AM 38.5506 -112.0986 90° East 451 519 33,000  Level Salt Lake Center
11:18AM 38.5503 -111.9375 90° East 452 520 33,000  Level Salt Lake Center
11:19AM 38.5494 -111.7764 90° East 454 522 33,000  Level Salt Lake Center
11:20AM 38.5483 -111.6150 90° East 455 524 33,000  Level Salt Lake Center
11:21AM 38.5469 -111.4528 91° East 457 526 33,000  Level Salt Lake Center
11:22AM 38.5458 -111.2900 90° East 458 527 33,000  Level Salt Lake Center
11:23AM 38.5439 -111.0964 91° East 456 525 33,000  Level Salt Lake Center
11:24AM 38.5411 -110.9253 91° East 458 527 33,000  Level Salt Lake Center
11:25AM 38.5389 -110.7694 91° East 460 529 33,000  Level Salt Lake Center
11:26AM 38.5375 -110.6142 91° East 458 527 33,000  Level Salt Lake Center
11:27AM 38.5336 -110.4308 91° East 463 533 33,000  Level Salt Lake Center
11:28AM 38.5303 -110.2992 92° East 461 531 33,000  Level Denver Center
11:29AM 38.5264 -110.1153 91° East 465 535 33,000  Level Denver Center
11:30AM 38.5239 -109.9581 91° East 464 534 33,000  Level Denver Center
11:31AM 38.5197 -109.7744 92° East 464 534 33,000  Level Denver Center
11:32AM 38.5161 -109.6156 92° East 466 536 33,000  Level Denver Center
11:33AM 38.5119 -109.4578 92° East 466 536 33,000  Level Denver Center
11:34AM 38.5069 -109.2750 92° East 464 534 33,000  Level Denver Center
11:35AM 38.5028 -109.1131 92° East 474 545 33,000  Level Denver Center
11:36AM 38.4983 -108.9281 92° East 469 540 33,000  Level Denver Center
11:37AM 38.4928 -108.7689 93° East 471 542 33,000  Level Denver Center
11:38AM 38.4872 -108.5836 92° East 470 541 33,000  Level Denver Center
11:39AM 38.4814 -108.4244 93° East 471 542 33,000  Level Denver Center
11:40AM 38.4750 -108.2381 92° East 473 544 33,000  Level Denver Center
11:41AM 38.4708 -108.0783 92° East 472 543 33,000  Level Denver Center
11:42AM 38.4617 -107.8650 93° East 472 543 33,000  Level Denver Center
11:44AM 38.4553 -107.6797 92° East 470 541 33,000  Level Denver Center
11:45AM 38.4861 -107.5247 76° East 471 542 33,000  Level Denver Center
11:46AM 38.5583 -107.3617 60° Northeast 470 541 33,000  Level Denver Center
11:47AM 38.6217 -107.2239 59° Northeast 472 543 33,000  Level Denver Center
11:48AM 38.6894 -107.0758 60° Northeast 474 545 33,000  Level Denver Center
11:49AM 38.7553 -106.9303 60° Northeast 474 545 33,000  Level Denver Center
11:50AM 38.8208 -106.7853 60° Northeast 473 544 33,000  Level Denver Center
11:51AM 38.8961 -106.6194 60° Northeast 475 547 33,000  Level Denver Center
11:52AM 38.9586 -106.4781 60° Northeast 476 548 33,000  Level Denver Center
11:53AM 39.0308 -106.3136 60° Northeast 475 547 33,000 -480 Level Denver Center
11:54AM 39.0933 -106.1719 60° Northeast 477 549 32,100 -1,560 Descending Denver Center
11:55AM 39.1592 -106.0239 60° Northeast 479 551 29,800 -2,520 Descending Denver Center
11:56AM 39.2342 -105.8522 61° Northeast 460 529 27,000 -2,580 Descending Denver Center
11:57AM 39.2933 -105.7161 61° Northeast 439 505 24,500 -2,340 Descending Denver Center
11:58AM 39.3519 -105.5833 60° Northeast 428 493 22,200 -1,440 Descending Denver Center
11:59AM 39.4119 -105.4506 60° Northeast 383 441 21,500 -1,260 Descending Denver Center
12:00PM 39.4667 -105.3442 56° Northeast 358 412 19,600 -1,800 Descending Denver Center
12:01PM 39.5253 -105.2361 55° Northeast 344 396 17,800 -1,800 Descending Denver Center
12:02PM 39.5744 -105.1386 57° Northeast 328 377 15,900 -1,800 Descending Denver Center
12:03PM 39.6244 -105.0458 55° Northeast 315 362 14,200 -1,440 Descending Denver Center
12:04PM 39.6747 -104.9475 56° Northeast 307 353 13,000 -600 Descending Denver Center
12:05PM 39.7228 -104.8589 55° Northeast 305 351 13,000 -540 Level Denver Center
12:06PM 39.8086 -104.8411 North 300 345 12,000 -1,020 Descending Denver Center
12:07PM 39.8842 -104.8400 North 268 308 11,000 -600 Descending Denver Center
12:08PM 39.9547 -104.8397 360° North 253 291 10,800 -420 Descending Denver Center
12:10PM 40.0283 -104.8408 359° North 247 284 10,100 -660 Descending Denver Center
12:11PM 40.1089 -104.8272 North 246 283 9,200 -540 Descending Denver Center
12:12PM 40.1117 -104.7444 87° East 200 230 9,000 -300 Descending Denver Center
12:13PM 40.0692 -104.7181 155° Southeast 197 227 8,600 -420 Descending Denver Center